Time;durP1;ratioP1;P1;durP2;ratioP2;P2;SDS_P1;SDS_P2;PMS_P1;PMS_P2;Temp;Humidity;BMP_temperature;BMP_pressure;BME280_temperature;BME280_humidity;BME280_pressure;Samples;Min_cycle;Max_cycle;Signal;HPM_P1;HPM_P2
2022/01/26 00:07:54;;;;;;;0.60;0.60;;;3.30;99.90;;;;;;5051385;28;20140;-79
2022/01/26 00:10:21;;;;;;;0.70;0.70;;;3.10;99.90;;;;;;5051496;28;20140;-79
2022/01/26 00:12:46;;;;;;;0.70;0.70;;;3.30;99.90;;;;;;5073373;28;20051;-80
2022/01/26 00:15:12;;;;;;;0.70;0.70;;;3.30;99.90;;;;;;5135028;28;20043;-80
2022/01/26 00:17:38;;;;;;;1.17;1.17;;;3.50;99.90;;;;;;5134818;28;20072;-80
2022/01/26 00:20:16;;;;;;;0.70;0.70;;;3.30;99.90;;;;;;5099906;28;20130;-80
2022/01/26 00:25:40;;;;;;;1.10;1.02;;;3.30;99.90;;;;;;5134833;28;20047;-79
2022/01/26 00:39:08;;;;;;;0.60;0.60;;;3.20;99.90;;;;;;5127141;28;20047;-79
2022/01/26 00:41:36;;;;;;;3.22;3.03;;;3.20;99.90;;;;;;5116179;28;20040;-79
2022/01/26 00:44:03;;;;;;;10.75;5.43;;;3.60;99.90;;;;;;5118902;27;20479;-79
2022/01/26 00:46:29;;;;;;;0.60;0.60;;;3.10;99.90;;;;;;5138388;27;20086;-79
2022/01/26 00:48:55;;;;;;;2.15;2.05;;;3.10;99.90;;;;;;5138128;27;20090;-79
2022/01/26 00:51:22;;;;;;;3.20;2.95;;;3.10;99.90;;;;;;5103064;27;20398;-80
2022/01/26 00:54:04;;;;;;;1.50;1.45;;;3.10;99.90;;;;;;5120178;27;20043;-80
2022/01/26 00:56:29;;;;;;;7.13;4.72;;;3.10;99.90;;;;;;5122361;27;20051;-80
2022/01/26 00:58:57;;;;;;;0.68;0.68;;;3.10;99.90;;;;;;5138603;27;20158;-79
2022/01/26 01:01:23;;;;;;;2.75;2.55;;;3.10;99.90;;;;;;5137756;27;20047;-79
2022/01/26 01:03:49;;;;;;;0.70;0.70;;;3.10;99.90;;;;;;5102682;27;20047;-79
2022/01/26 01:06:27;;;;;;;0.73;0.73;;;3.00;99.90;;;;;;5119753;27;20043;-79
2022/01/26 01:08:56;;;;;;;0.75;0.75;;;3.00;99.90;;;;;;5137749;27;20559;-79
2022/01/26 01:11:22;;;;;;;8.70;2.60;;;3.00;99.90;;;;;;5137527;27;20050;-79
2022/01/26 01:13:48;;;;;;;1.88;1.77;;;3.00;99.90;;;;;;5119231;27;20043;-79
2022/01/26 01:16:19;;;;;;;3.65;3.13;;;3.00;99.90;;;;;;5138147;27;20380;-79
2022/01/26 01:27:24;;;;;;;1.42;1.30;;;2.80;99.90;;;;;;5106039;27;20197;-79
2022/01/26 01:30:01;;;;;;;1.75;1.65;;;2.80;99.90;;;;;;5136538;27;20079;-79
2022/01/26 01:32:36;;;;;;;1.48;1.38;;;2.80;99.90;;;;;;5119356;27;20372;-79
2022/01/26 01:35:07;;;;;;;1.88;1.77;;;2.80;99.90;;;;;;5137219;27;20047;-79
2022/01/26 01:37:32;;;;;;;2.30;2.10;;;2.80;99.90;;;;;;5137187;27;20118;-79
2022/01/26 01:39:58;;;;;;;0.98;0.98;;;2.80;99.90;;;;;;5101866;27;20530;-79
2022/01/26 01:42:23;;;;;;;0.82;0.82;;;2.90;99.90;;;;;;5101927;27;20047;-79
2022/01/26 01:44:49;;;;;;;11.85;8.63;;;2.90;99.90;;;;;;5101812;27;20083;-79
2022/01/26 01:47:14;;;;;;;0.88;0.88;;;2.90;99.90;;;;;;5119534;27;20035;-79
2022/01/26 01:49:40;;;;;;;0.98;0.98;;;2.90;99.90;;;;;;5097896;28;20083;-79
2022/01/26 01:52:12;;;;;;;3.00;2.80;;;2.90;99.90;;;;;;5115198;28;20043;-79
2022/01/26 01:54:40;;;;;;;1.33;1.23;;;2.90;99.90;;;;;;5116064;28;20043;-79
2022/01/26 01:57:06;;;;;;;0.82;0.82;;;3.00;99.90;;;;;;5097959;28;20044;-79
2022/01/26 01:59:33;;;;;;;0.70;0.70;;;2.80;99.90;;;;;;5114877;28;20487;-79
2022/01/26 02:01:59;;;;;;;;;;;2.80;99.90;;;;;;5098581;28;20043;-79
2022/01/26 02:04:25;;;;;;;2.13;1.95;;;2.60;99.90;;;;;;5116066;28;19927;-79
2022/01/26 02:06:51;;;;;;;2.00;1.90;;;2.80;99.90;;;;;;5114737;28;20173;-79
2022/01/26 02:09:17;;;;;;;0.90;0.90;;;2.70;99.90;;;;;;5115961;28;20083;-79
2022/01/26 02:11:48;;;;;;;2.25;2.15;;;2.70;99.90;;;;;;5097926;28;20051;-79
2022/01/26 02:14:22;;;;;;;1.08;0.98;;;2.70;99.90;;;;;;5097778;28;20044;-79
2022/01/26 02:16:58;;;;;;;10.35;7.43;;;2.60;99.90;;;;;;5115758;28;20051;-79
2022/01/26 02:50:14;;;;;;;0.70;0.70;;;2.80;99.90;;;;;;5123599;27;20062;-79
2022/01/26 02:59:59;;;;;;;2.78;2.58;;;2.70;99.90;;;;;;5135477;27;20050;-79
2022/01/26 03:05:02;;;;;;;1.20;1.00;;;3.30;99.90;;;;;;5117223;27;20509;-79
2022/01/26 03:10:18;;;;;;;8.70;3.72;;;2.70;99.90;;;;;;5135366;27;20057;-79
2022/01/26 03:12:56;;;;;;;1.15;1.15;;;2.60;99.90;;;;;;5135465;27;20054;-79
2022/01/26 03:15:30;;;;;;;0.60;0.60;;;2.60;99.90;;;;;;5135553;27;20050;-79
2022/01/26 03:20:42;;;;;;;1.60;1.50;;;2.60;99.90;;;;;;5116904;27;20078;-79
2022/01/26 03:31:44;;;;;;;2.28;2.20;;;2.10;99.90;;;;;;5135164;27;20050;-79
2022/01/26 03:36:28;;;;;;;1.08;1.08;;;2.60;99.90;;;;;;5135204;27;20087;-79
2022/01/26 03:39:00;;;;;;;1.33;1.23;;;2.50;99.90;;;;;;5116896;27;20047;-79
2022/01/26 03:41:37;;;;;;;1.00;1.00;;;2.50;99.90;;;;;;5134902;27;20043;-79
2022/01/26 03:44:03;;;;;;;1.60;1.50;;;2.50;99.90;;;;;;5117172;27;20047;-79
2022/01/26 03:46:29;;;;;;;0.73;0.73;;;2.50;99.90;;;;;;5083441;27;20376;-79
2022/01/26 03:48:55;;;;;;;0.63;0.63;;;2.50;99.90;;;;;;5113489;28;20088;-79
2022/01/26 03:51:20;;;;;;;2.10;1.85;;;2.50;99.90;;;;;;5114450;28;20131;-79
2022/01/26 03:53:46;;;;;;;6.35;1.73;;;2.50;99.90;;;;;;5113405;28;20391;-79
2022/01/26 03:56:11;;;;;;;0.82;0.82;;;2.50;99.90;;;;;;5114398;28;20044;-79
2022/01/26 03:58:37;;;;;;;0.80;0.80;;;2.50;99.90;;;;;;5112981;28;20122;-79
2022/01/26 04:01:03;;;;;;;0.68;0.68;;;2.50;99.90;;;;;;5113001;28;20411;-79
2022/01/26 04:03:28;;;;;;;17.52;5.68;;;2.50;99.90;;;;;;5113989;28;20040;-79
2022/01/26 04:05:54;;;;;;;0.70;0.70;;;2.50;99.90;;;;;;5114064;28;20071;-79
2022/01/26 04:08:26;;;;;;;0.63;0.63;;;2.50;99.90;;;;;;5114095;28;20040;-79
2022/01/26 04:13:26;;;;;;;0.80;0.80;;;2.50;99.90;;;;;;5113326;28;20052;-80
2022/01/26 04:15:51;;;;;;;0.70;0.70;;;1.60;99.90;;;;;;5095578;28;20061;-79
2022/01/26 04:18:22;;;;;;;20.30;6.72;;;2.50;99.90;;;;;;5116997;28;20075;-79
2022/01/26 04:20:52;;;;;;;2.08;1.98;;;2.50;99.90;;;;;;5100665;28;20044;-79
2022/01/26 04:23:25;;;;;;;2.75;2.55;;;2.40;99.90;;;;;;5116778;28;20396;-79
2022/01/26 04:25:52;;;;;;;1.98;1.88;;;2.80;99.90;;;;;;5116972;28;20077;-79
2022/01/26 04:28:27;;;;;;;2.78;2.55;;;2.40;99.90;;;;;;5116527;28;20130;-79
2022/01/26 04:30:53;;;;;;;0.80;0.80;;;2.40;99.90;;;;;;5116870;28;20048;-79
2022/01/26 04:33:18;;;;;;;0.88;0.85;;;2.40;99.90;;;;;;5116296;28;20039;-79
2022/01/26 04:35:46;;;;;;;1.58;1.48;;;2.40;99.90;;;;;;5117819;28;20043;-76
2022/01/26 04:38:25;;;;;;;1.30;1.25;;;2.30;99.90;;;;;;5116709;28;20073;-77
2022/01/26 04:43:32;;;;;;;;;;;2.30;99.90;;;;;;5116942;28;20043;-78
2022/01/26 04:45:58;;;;;;;0.70;0.70;;;2.20;99.90;;;;;;5116604;28;19919;-78
2022/01/26 04:48:25;;;;;;;1.40;1.30;;;2.20;99.90;;;;;;5119217;27;20040;-77
2022/01/26 04:50:51;;;;;;;1.27;1.13;;;2.70;99.90;;;;;;5120005;27;20046;-78
2022/01/26 04:53:17;;;;;;;1.13;1.13;;;2.10;99.90;;;;;;5138691;27;20043;-78
2022/01/26 04:55:43;;;;;;;0.90;0.90;;;2.20;99.90;;;;;;5119319;27;20047;-78
2022/01/26 04:58:08;;;;;;;0.80;0.80;;;2.20;99.90;;;;;;5138022;27;20039;-77
2022/01/26 05:00:34;;;;;;;1.67;1.58;;;2.10;99.90;;;;;;5119604;27;20039;-78
2022/01/26 05:03:00;;;;;;;0.70;0.70;;;2.00;99.90;;;;;;5119505;27;20046;-78
2022/01/26 05:05:26;;;;;;;1.10;0.95;;;1.30;99.90;;;;;;5119567;27;20127;-79
2022/01/26 05:07:51;;;;;;;0.80;0.80;;;2.10;99.90;;;;;;5119405;27;20554;-78
2022/01/26 05:10:17;;;;;;;29.45;19.65;;;2.10;99.90;;;;;;5119766;27;20073;-78
2022/01/26 05:12:42;;;;;;;0.82;0.82;;;2.10;99.90;;;;;;5137660;27;20080;-77
2022/01/26 05:15:08;;;;;;;0.70;0.70;;;2.10;99.90;;;;;;5119457;27;20043;-78
2022/01/26 05:17:36;;;;;;;0.90;0.90;;;1.90;99.90;;;;;;5137593;27;20079;-78
2022/01/26 05:20:02;;;;;;;0.82;0.77;;;2.50;99.90;;;;;;5137508;27;20047;-78
2022/01/26 05:22:30;;;;;;;1.95;1.50;;;2.00;99.90;;;;;;5118979;27;20458;-78
2022/01/26 05:24:56;;;;;;;0.80;0.80;;;2.00;99.90;;;;;;5103121;27;20047;-78
2022/01/26 05:27:21;;;;;;;0.88;0.88;;;2.20;99.90;;;;;;5137400;27;20039;-78
2022/01/26 05:29:47;;;;;;;1.85;1.75;;;2.00;99.90;;;;;;5118137;27;20395;-78
2022/01/26 05:32:12;;;;;;;3.90;3.50;;;2.10;99.90;;;;;;5137265;27;20376;-78
2022/01/26 05:34:38;;;;;;;0.77;0.77;;;1.30;99.90;;;;;;5137133;27;20475;-78
2022/01/26 05:37:04;;;;;;;0.70;0.70;;;2.00;99.90;;;;;;5119523;27;20046;-78
2022/01/26 05:39:31;;;;;;;0.70;0.70;;;2.10;99.90;;;;;;5119230;27;20076;-78
2022/01/26 05:41:57;;;;;;;0.60;0.60;;;2.10;99.90;;;;;;5102218;27;20037;-78
2022/01/26 05:44:23;;;;;;;0.93;0.77;;;2.10;99.90;;;;;;5137039;27;20070;-78
2022/01/26 05:46:50;;;;;;;2.22;2.13;;;2.10;99.90;;;;;;5102029;27;20047;-78
2022/01/26 05:49:18;;;;;;;0.60;0.60;;;2.10;99.90;;;;;;5136998;27;20051;-78
2022/01/26 05:51:47;;;;;;;0.70;0.70;;;2.10;99.90;;;;;;5137395;27;20543;-78
2022/01/26 05:54:16;;;;;;;1.85;1.75;;;2.10;99.90;;;;;;5118636;27;20398;-78
2022/01/26 05:56:44;;;;;;;0.60;0.60;;;2.10;99.90;;;;;;5136903;27;20475;-78
2022/01/26 05:59:10;;;;;;;0.70;0.70;;;2.60;99.90;;;;;;5118806;27;20555;-78
2022/01/26 06:01:36;;;;;;;0.70;0.70;;;2.10;99.90;;;;;;5118712;27;20043;-78
2022/01/26 06:04:01;;;;;;;5.72;5.32;;;2.10;99.90;;;;;;5136443;27;20051;-78
2022/01/26 06:06:27;;;;;;;2.28;1.08;;;2.10;99.90;;;;;;5101452;27;20051;-78
2022/01/26 06:08:52;;;;;;;0.70;0.70;;;2.10;99.90;;;;;;5119209;27;20043;-78
2022/01/26 06:11:18;;;;;;;0.70;0.70;;;2.10;99.90;;;;;;5136307;27;20051;-78
2022/01/26 06:13:44;;;;;;;1.17;1.15;;;2.20;99.90;;;;;;5136558;27;20398;-78
2022/01/26 06:16:10;;;;;;;1.27;1.20;;;1.80;99.90;;;;;;5136530;27;20039;-78
2022/01/26 06:18:36;;;;;;;0.70;0.70;;;1.80;99.90;;;;;;5101130;27;20043;-78
2022/01/26 06:21:02;;;;;;;0.93;0.93;;;2.00;99.90;;;;;;5136916;27;20134;-78
2022/01/26 06:23:27;;;;;;;2.45;2.35;;;2.10;99.90;;;;;;5117878;27;20066;-78
2022/01/26 06:25:55;;;;;;;2.83;2.63;;;2.10;99.90;;;;;;5136051;27;20082;-78
2022/01/26 06:28:23;;;;;;;1.50;1.40;;;2.10;99.90;;;;;;5100836;27;20066;-78
2022/01/26 06:30:52;;;;;;;1.83;1.73;;;2.10;99.90;;;;;;5118103;27;20043;-79
2022/01/26 06:33:18;;;;;;;0.88;0.88;;;2.10;99.90;;;;;;5118169;27;20134;-79
2022/01/26 06:35:44;;;;;;;0.70;0.70;;;2.10;99.90;;;;;;5136039;27;20424;-78
2022/01/26 06:38:09;;;;;;;0.70;0.70;;;2.10;99.90;;;;;;5135914;27;20088;-76
2022/01/26 06:40:35;;;;;;;1.08;1.08;;;2.00;99.90;;;;;;5135203;27;20043;-77
2022/01/26 06:43:06;;;;;;;0.60;0.60;;;2.10;99.90;;;;;;5117655;27;20471;-77
2022/01/26 06:45:33;;;;;;;1.35;0.93;;;2.10;99.90;;;;;;5135891;27;20043;-76
2022/01/26 06:50:43;;;;;;;0.73;0.73;;;2.70;99.90;;;;;;5135842;27;20332;-77
2022/01/26 06:53:09;;;;;;;0.60;0.60;;;2.10;99.90;;;;;;5135649;27;20039;-77
2022/01/26 06:55:36;;;;;;;0.70;0.70;;;2.10;99.90;;;;;;5117391;27;20603;-77
2022/01/26 06:58:02;;;;;;;0.80;0.80;;;2.10;99.90;;;;;;5117452;27;20047;-79
2022/01/26 07:00:28;;;;;;;1.38;1.27;;;2.20;99.90;;;;;;5135330;27;20043;-77
2022/01/26 07:02:54;;;;;;;0.63;0.63;;;2.20;99.90;;;;;;5135283;27;20045;-77
2022/01/26 07:05:21;;;;;;;2.05;1.02;;;2.20;99.90;;;;;;5117260;27;20452;-77
2022/01/26 07:07:46;;;;;;;3.63;3.33;;;2.20;99.90;;;;;;5135370;27;20047;-77
2022/01/26 07:10:12;;;;;;;1.42;1.35;;;2.20;99.90;;;;;;5135484;27;20061;-76
2022/01/26 07:12:38;;;;;;;0.95;0.95;;;2.20;99.90;;;;;;5100362;27;20043;-77
2022/01/26 07:23:01;;;;;;;1.30;0.80;;;2.30;99.90;;;;;;5116456;27;20039;-77
2022/01/26 07:25:27;;;;;;;1.10;0.70;;;2.30;99.90;;;;;;5135019;27;20047;-77
2022/01/26 07:27:52;;;;;;;0.70;0.70;;;2.30;99.90;;;;;;5135582;27;20082;-78
2022/01/26 07:30:18;;;;;;;0.90;0.90;;;1.90;99.90;;;;;;5100088;27;20152;-78
2022/01/26 07:32:44;;;;;;;0.70;0.70;;;2.30;99.90;;;;;;5134932;27;20035;-77
2022/01/26 07:35:10;;;;;;;0.70;0.70;;;2.30;99.90;;;;;;5100341;27;20047;-76
2022/01/26 07:37:36;;;;;;;0.90;0.90;;;2.30;99.90;;;;;;5134993;27;20039;-77
2022/01/26 07:40:06;;;;;;;1.23;1.13;;;2.30;99.90;;;;;;5134839;27;20043;-77
2022/01/26 07:42:38;;;;;;;2.88;2.67;;;2.30;99.90;;;;;;5099947;27;20035;-78
2022/01/26 07:45:06;;;;;;;0.80;0.80;;;2.40;99.90;;;;;;5134951;27;20046;-78
2022/01/26 07:47:32;;;;;;;2.08;1.98;;;2.40;99.90;;;;;;5135075;27;20043;-77
2022/01/26 07:50:00;;;;;;;0.70;0.70;;;2.10;99.90;;;;;;5116394;28;20116;-77
2022/01/26 07:52:27;;;;;;;0.80;0.80;;;2.50;99.90;;;;;;5134455;27;20035;-77
2022/01/26 07:54:53;;;;;;;0.80;0.80;;;2.40;99.90;;;;;;5099798;27;20077;-77
2022/01/26 07:57:20;;;;;;;0.60;0.60;;;2.40;99.90;;;;;;5135032;28;20407;-77
2022/01/26 07:59:46;;;;;;;2.25;2.15;;;2.40;99.90;;;;;;5134685;28;20053;-77
2022/01/26 08:02:11;;;;;;;1.35;1.25;;;2.40;99.90;;;;;;5134738;28;20398;-77
2022/01/26 08:04:37;;;;;;;1.25;1.15;;;2.60;99.90;;;;;;5134724;28;20051;-77
2022/01/26 08:07:03;;;;;;;0.70;0.70;;;2.40;99.90;;;;;;5134339;28;20054;-77
2022/01/26 08:09:29;;;;;;;0.90;0.70;;;2.40;99.90;;;;;;5134786;28;20441;-78
2022/01/26 08:11:54;;;;;;;1.15;1.05;;;2.40;99.90;;;;;;5134666;28;20039;-77
2022/01/26 08:14:20;;;;;;;1.00;1.00;;;2.40;99.90;;;;;;5116560;28;20039;-77
2022/01/26 08:16:46;;;;;;;0.70;0.70;;;2.40;99.90;;;;;;5099580;28;20043;-78
2022/01/26 08:19:17;;;;;;;0.70;0.70;;;2.50;99.90;;;;;;5135006;28;20043;-77
2022/01/26 08:21:43;;;;;;;1.63;1.23;;;2.50;99.90;;;;;;5116368;28;20043;-77
2022/01/26 08:24:15;;;;;;;2.17;1.80;;;2.40;99.90;;;;;;5134799;28;20164;-77
2022/01/26 08:26:49;;;;;;;1.10;1.00;;;2.70;99.90;;;;;;5135020;28;20047;-77
2022/01/26 08:32:00;;;;;;;5.35;3.42;;;2.50;99.90;;;;;;5092124;28;20047;-77
2022/01/26 08:34:26;;;;;;;3.42;3.20;;;2.50;99.90;;;;;;5116369;28;20497;-77
2022/01/26 08:36:51;;;;;;;3.30;3.00;;;2.50;99.90;;;;;;5116197;28;20042;-77
2022/01/26 08:39:17;;;;;;;1.23;1.13;;;2.50;99.90;;;;;;5116137;28;20446;-78
2022/01/26 08:41:43;;;;;;;1.23;1.00;;;2.50;99.90;;;;;;5133966;28;20051;-77
2022/01/26 08:44:09;;;;;;;2.55;2.40;;;2.50;99.90;;;;;;5134621;28;20043;-78
2022/01/26 08:46:35;;;;;;;1.45;1.35;;;2.60;99.90;;;;;;5134250;28;20046;-76
2022/01/26 08:49:03;;;;;;;0.70;0.70;;;2.60;99.90;;;;;;5134210;27;20047;-76
2022/01/26 08:51:29;;;;;;;1.50;1.40;;;2.60;99.90;;;;;;5134829;28;20047;-77
2022/01/26 08:53:54;;;;;;;0.90;0.90;;;2.60;99.90;;;;;;5116569;28;20054;-75
2022/01/26 08:56:20;;;;;;;0.73;0.73;;;2.70;99.90;;;;;;5133974;28;20050;-77
2022/01/26 08:58:46;;;;;;;0.60;0.60;;;2.90;99.90;;;;;;5134356;28;20049;-79
2022/01/26 09:01:11;;;;;;;3.45;3.22;;;2.70;99.90;;;;;;5134492;28;20043;-77
2022/01/26 09:03:40;;;;;;;0.70;0.70;;;2.70;99.90;;;;;;5134528;27;20046;-75
2022/01/26 09:06:07;;;;;;;3.20;3.00;;;2.70;99.90;;;;;;5119471;27;20087;-76
2022/01/26 09:08:33;;;;;;;2.80;2.60;;;2.80;99.90;;;;;;5102997;27;20054;-76
2022/01/26 09:11:01;;;;;;;2.45;2.35;;;2.70;99.90;;;;;;5137729;27;20043;-74
2022/01/26 09:13:30;;;;;;;2.25;2.15;;;2.80;99.90;;;;;;5137711;27;20042;-75
2022/01/26 09:15:56;;;;;;;1.10;1.00;;;2.80;99.90;;;;;;5137721;27;20047;-75
2022/01/26 09:18:32;;;;;;;5.10;3.28;;;2.80;99.90;;;;;;5137488;27;20047;-77
2022/01/26 09:20:58;;;;;;;1.60;1.50;;;2.80;99.90;;;;;;5137658;27;20039;-76
2022/01/26 09:23:23;;;;;;;2.38;1.20;;;3.00;99.90;;;;;;5137422;27;20035;-77
2022/01/26 09:25:49;;;;;;;1.58;1.48;;;2.80;99.90;;;;;;5119185;27;20050;-77
2022/01/26 09:28:14;;;;;;;0.80;0.80;;;3.00;99.90;;;;;;5137401;27;20043;-78
2022/01/26 09:30:40;;;;;;;0.90;0.90;;;2.90;99.90;;;;;;5118991;27;20075;-78
2022/01/26 09:33:05;;;;;;;1.13;1.10;;;3.00;99.90;;;;;;5137305;27;20039;-77
2022/01/26 09:35:31;;;;;;;0.90;0.90;;;2.90;99.90;;;;;;5101985;27;20387;-78
2022/01/26 09:37:56;;;;;;;1.05;1.05;;;2.90;99.90;;;;;;5137020;27;20390;-76
2022/01/26 09:40:23;;;;;;;0.60;0.60;;;2.90;99.90;;;;;;5137286;27;20047;-77
2022/01/26 09:42:51;;;;;;;7.22;6.65;;;4.30;99.90;;;;;;5137462;27;20046;-76
2022/01/26 09:45:17;;;;;;;1.70;1.60;;;3.00;99.90;;;;;;5136710;27;20074;-76
2022/01/26 09:47:44;;;;;;;1.10;1.10;;;3.00;99.90;;;;;;5136216;27;20546;-78
2022/01/26 09:50:10;;;;;;;1.40;1.30;;;3.00;99.90;;;;;;5137901;27;20280;-77
2022/01/26 09:52:45;;;;;;;1.50;1.40;;;3.00;99.90;;;;;;5136924;27;20467;-76
2022/01/26 09:55:11;;;;;;;0.85;0.85;;;3.00;99.90;;;;;;5137010;27;20410;-77
2022/01/26 09:57:42;;;;;;;0.82;0.82;;;3.00;99.90;;;;;;5136729;27;20047;-76
2022/01/26 10:00:09;;;;;;;5.25;2.55;;;3.00;99.90;;;;;;5136807;27;20047;-77
2022/01/26 10:02:35;;;;;;;3.20;2.90;;;3.00;99.90;;;;;;5136518;27;20125;-77
2022/01/26 10:05:10;;;;;;;0.90;0.90;;;3.20;99.90;;;;;;5136620;27;20047;-77
2022/01/26 10:07:54;;;;;;;1.40;1.30;;;3.10;99.90;;;;;;5136562;27;20057;-76
2022/01/26 10:16:02;;;;;;;0.95;0.95;;;3.10;99.90;;;;;;5136636;27;20047;-78
2022/01/26 10:18:31;;;;;;;1.70;1.60;;;3.20;99.90;;;;;;5118532;27;20390;-77
2022/01/26 10:20:58;;;;;;;1.00;1.00;;;3.20;99.90;;;;;;5136455;27;20054;-76
2022/01/26 10:23:26;;;;;;;2.45;2.25;;;3.20;99.90;;;;;;5136201;27;20049;-78
2022/01/26 10:26:03;;;;;;;10.23;6.70;;;3.20;99.90;;;;;;5136876;27;20054;-76
2022/01/26 10:28:53;;;;;;;3.38;3.08;;;3.20;99.90;;;;;;5136320;27;20528;-78
2022/01/26 10:31:19;;;;;;;1.83;1.70;;;3.30;99.90;;;;;;5136484;27;20042;-77
2022/01/26 10:33:59;;;;;;;0.70;0.70;;;3.30;99.90;;;;;;5136131;27;20047;-77
2022/01/26 10:36:40;;;;;;;3.08;2.85;;;3.30;99.90;;;;;;5136074;27;20093;-78
2022/01/26 10:39:14;;;;;;;1.42;1.33;;;3.30;99.90;;;;;;5118372;27;20051;-77
2022/01/26 10:41:42;;;;;;;0.70;0.70;;;3.40;99.90;;;;;;5135472;27;20122;-76
2022/01/26 10:44:08;;;;;;;4.57;3.28;;;3.40;99.90;;;;;;5135768;27;20046;-76
2022/01/26 10:46:38;;;;;;;0.80;0.80;;;3.40;99.90;;;;;;5135985;27;20042;-76
2022/01/26 10:54:38;;;;;;;0.80;0.80;;;3.50;99.90;;;;;;5117484;27;20072;-79
2022/01/26 10:57:05;;;;;;;2.80;2.35;;;3.50;99.90;;;;;;5135763;27;20043;-78
2022/01/26 10:59:34;;;;;;;;;;;3.50;99.90;;;;;;5136063;27;20050;-78
2022/01/26 11:02:10;;;;;;;1.98;1.85;;;3.50;99.90;;;;;;5135442;27;19919;-78
2022/01/26 11:04:42;;;;;;;9.68;8.70;;;3.50;99.90;;;;;;5135843;27;20051;-76
2022/01/26 11:07:12;;;;;;;1.10;1.10;;;4.30;99.90;;;;;;5101319;27;20398;-75
2022/01/26 11:09:40;;;;;;;3.08;2.78;;;3.60;99.90;;;;;;5135304;27;20168;-78
2022/01/26 11:12:09;;;;;;;6.75;4.43;;;3.60;99.90;;;;;;5135212;27;20039;-77
2022/01/26 11:14:47;;;;;;;0.70;0.70;;;3.70;99.90;;;;;;5135222;27;20398;-77
2022/01/26 11:17:29;;;;;;;6.70;2.88;;;3.70;99.90;;;;;;5135255;27;20047;-77
2022/01/26 11:19:57;;;;;;;1.38;1.02;;;3.80;99.90;;;;;;5135220;27;20463;-77
2022/01/26 11:22:28;;;;;;;4.20;2.78;;;3.70;99.90;;;;;;5135090;27;20051;-75
2022/01/26 11:24:55;;;;;;;1.50;1.15;;;3.80;99.90;;;;;;5135113;27;20084;-77
2022/01/26 11:27:21;;;;;;;1.25;1.13;;;3.90;99.90;;;;;;5134301;27;20104;-75
2022/01/26 11:29:53;;;;;;;2.75;2.63;;;3.80;99.90;;;;;;5135099;27;20038;-76
2022/01/26 11:32:36;;;;;;;1.98;1.88;;;3.80;99.90;;;;;;5134716;27;20038;-77
2022/01/26 11:35:07;;;;;;;0.50;0.50;;;3.80;99.90;;;;;;5135284;27;20047;-79
2022/01/26 11:37:42;;;;;;;3.13;2.83;;;3.90;99.90;;;;;;5117042;27;20096;-76
2022/01/26 11:45:30;;;;;;;0.93;0.90;;;3.90;99.90;;;;;;5135008;27;20134;-77
2022/01/26 11:48:20;;;;;;;2.10;1.73;;;3.90;99.90;;;;;;5118136;27;20043;-76
2022/01/26 11:51:00;;;;;;;1.00;1.00;;;3.90;99.90;;;;;;5134778;27;20281;-78
2022/01/26 11:53:27;;;;;;;3.35;3.05;;;3.90;99.90;;;;;;5134731;27;20074;-78
2022/01/26 11:56:02;;;;;;;1.17;1.13;;;3.90;99.90;;;;;;5134433;27;20479;-79
2022/01/26 11:58:39;;;;;;;1.13;1.13;;;4.00;99.90;;;;;;5134677;27;20118;-76
2022/01/26 12:01:14;;;;;;;1.70;1.60;;;4.00;99.90;;;;;;5134672;28;20471;-77
2022/01/26 12:04:02;;;;;;;1.25;1.10;;;4.00;99.90;;;;;;5134569;28;20036;-78
2022/01/26 12:06:47;;;;;;;0.85;0.85;;;4.00;99.90;;;;;;5116892;28;20035;-77
2022/01/26 12:09:13;;;;;;;1.40;1.08;;;4.00;99.90;;;;;;5134802;28;20069;-78
2022/01/26 12:11:39;;;;;;;5.18;4.78;;;4.00;99.90;;;;;;5134614;28;20047;-76
2022/01/26 12:14:07;;;;;;;0.70;0.70;;;4.40;99.90;;;;;;5134459;28;20555;-76
2022/01/26 12:16:42;;;;;;;3.28;3.08;;;4.10;99.90;;;;;;5134515;28;20047;-77
2022/01/26 12:19:28;;;;;;;15.80;12.10;;;4.10;99.90;;;;;;5134417;28;20116;-77
2022/01/26 12:32:08;;;;;;;0.80;0.80;;;4.10;99.90;;;;;;5134782;28;20055;-79
2022/01/26 12:36:26;;;;;;;0.88;0.88;;;4.10;99.90;;;;;;5133887;28;20047;-77
2022/01/26 12:38:59;;;;;;;1.15;1.05;;;4.10;99.90;;;;;;5136182;27;20090;-77
2022/01/26 12:41:32;;;;;;;1.08;1.08;;;4.10;99.90;;;;;;5138193;27;20042;-77
2022/01/26 12:44:00;;;;;;;0.80;0.80;;;4.20;99.90;;;;;;5137359;27;20130;-76
2022/01/26 12:46:31;;;;;;;11.98;5.18;;;4.20;99.90;;;;;;5138145;27;20039;-78
2022/01/26 12:49:15;;;;;;;1.60;1.50;;;4.20;99.90;;;;;;5138181;27;20424;-78
2022/01/26 12:51:51;;;;;;;18.13;3.53;;;4.30;99.90;;;;;;5137936;27;20058;-78
2022/01/26 12:54:17;;;;;;;0.80;0.80;;;4.30;99.90;;;;;;5120249;27;20424;-77
2022/01/26 12:56:43;;;;;;;0.80;0.80;;;4.30;99.90;;;;;;5120284;27;20051;-78
2022/01/26 12:59:16;;;;;;;4.07;3.78;;;4.40;99.90;;;;;;5137972;27;20061;-77
2022/01/26 13:01:44;;;;;;;1.08;1.08;;;4.30;99.90;;;;;;5119667;27;20133;-77
2022/01/26 13:04:12;;;;;;;0.90;0.90;;;4.30;99.90;;;;;;5137750;27;20047;-78
2022/01/26 13:06:46;;;;;;;0.98;0.98;;;4.40;99.90;;;;;;5137706;27;20054;-78
2022/01/26 13:09:17;;;;;;;1.33;1.23;;;5.00;99.90;;;;;;5119974;27;20039;-79
2022/01/26 13:11:46;;;;;;;1.60;1.50;;;4.40;99.90;;;;;;5137796;27;20047;-77
2022/01/26 13:14:39;;;;;;;0.95;0.95;;;4.40;99.90;;;;;;5137322;27;20043;-78
2022/01/26 13:20:13;;;;;;;2.40;1.13;;;4.40;99.90;;;;;;5138057;27;20161;-76
2022/01/26 13:23:00;;;;;;;1.20;1.20;;;4.50;99.90;;;;;;5137595;27;20074;-77
2022/01/26 13:44:11;;;;;;;0.70;0.70;;;4.50;99.90;;;;;;5137343;27;20039;-78
2022/01/26 13:51:43;;;;;;;3.90;3.58;;;5.10;99.90;;;;;;5136371;27;20080;-78
2022/01/26 13:59:43;;;;;;;4.07;3.67;;;4.40;99.90;;;;;;5137438;27;20444;-78
2022/01/26 14:02:08;;;;;;;3.15;2.85;;;4.30;99.90;;;;;;5137742;27;20043;-78
2022/01/26 14:04:34;;;;;;;2.40;2.25;;;4.40;99.90;;;;;;5118436;27;20490;-79
2022/01/26 14:07:00;;;;;;;1.77;1.67;;;4.30;99.90;;;;;;5136688;27;20130;-81
2022/01/26 14:09:26;;;;;;;1.33;1.25;;;4.50;99.90;;;;;;5136544;27;20047;-80
2022/01/26 14:11:52;;;;;;;1.63;1.52;;;4.30;99.90;;;;;;5136424;27;20463;-79
2022/01/26 14:14:30;;;;;;;0.70;0.70;;;4.30;99.90;;;;;;5136546;27;20474;-80
2022/01/26 14:16:58;;;;;;;0.80;0.80;;;4.40;99.90;;;;;;5136616;27;20126;-79
2022/01/26 14:19:29;;;;;;;1.83;1.73;;;4.30;99.90;;;;;;5136268;27;20047;-77
2022/01/26 14:24:52;;;;;;;1.95;1.85;;;4.40;99.90;;;;;;5136297;27;20395;-80
2022/01/26 14:27:21;;;;;;;2.55;1.60;;;4.40;99.90;;;;;;5136557;27;20043;-79
2022/01/26 14:30:05;;;;;;;0.82;0.82;;;4.40;99.90;;;;;;5136201;27;20148;-79
2022/01/26 14:33:01;;;;;;;1.17;1.08;;;4.40;99.90;;;;;;5136275;27;20051;-79
2022/01/26 15:22:31;;;;;;;1.00;1.00;;;4.40;99.90;;;;;;5117386;27;20047;-79
2022/01/26 15:35:22;;;;;;;2.05;1.70;;;4.40;99.90;;;;;;5116882;27;20050;-78
2022/01/26 15:40:32;;;;;;;1.67;1.58;;;4.40;99.90;;;;;;5116701;27;20040;-79
2022/01/26 16:05:28;;;;;;;2.00;1.90;;;4.40;99.90;;;;;;5134980;28;20054;-77
2022/01/26 16:08:08;;;;;;;2.90;2.70;;;4.40;99.90;;;;;;5121458;28;20136;-81
2022/01/26 16:21:23;;;;;;;1.45;1.35;;;4.40;99.90;;;;;;5138672;27;20047;-79
2022/01/26 17:02:31;;;;;;;1.20;1.10;;;4.60;99.90;;;;;;5138910;27;20086;-78
2022/01/26 17:55:11;;;;;;;1.70;1.60;;;4.50;99.90;;;;;;5136969;27;20139;-77
2022/01/26 18:15:57;;;;;;;0.57;0.57;;;4.50;99.90;;;;;;5119690;27;20051;-76
2022/01/26 18:50:49;;;;;;;0.70;0.70;;;4.60;99.90;;;;;;5117610;27;20051;-78
2022/01/26 18:53:14;;;;;;;1.15;1.15;;;4.60;99.90;;;;;;5135237;27;20376;-77
2022/01/26 18:55:41;;;;;;;0.73;0.73;;;4.60;99.90;;;;;;5135409;27;20047;-80
2022/01/26 18:58:07;;;;;;;1.33;1.23;;;4.60;99.90;;;;;;5117381;27;20043;-80
2022/01/26 19:00:33;;;;;;;0.60;0.60;;;4.60;99.90;;;;;;5100314;27;20047;-79
2022/01/26 19:03:00;;;;;;;0.70;0.70;;;4.70;99.90;;;;;;5100412;27;20039;-79
2022/01/26 19:05:27;;;;;;;0.95;0.93;;;4.60;99.90;;;;;;5100604;27;20425;-78
2022/01/26 19:07:54;;;;;;;0.80;0.80;;;4.70;99.90;;;;;;5100194;27;20047;-80
2022/01/26 19:10:21;;;;;;;1.80;1.40;;;4.60;99.90;;;;;;5100451;27;20386;-76
2022/01/26 19:12:47;;;;;;;0.98;0.98;;;4.70;99.90;;;;;;5117451;27;20138;-78
2022/01/26 19:15:16;;;;;;;1.95;1.85;;;4.70;99.90;;;;;;5117282;27;20570;-79
2022/01/26 19:17:49;;;;;;;3.67;2.25;;;4.70;99.90;;;;;;5100129;27;20053;-79
2022/01/26 19:25:33;;;;;;;1.67;1.58;;;4.70;99.90;;;;;;5116786;27;20074;-80
2022/01/26 19:28:14;;;;;;;1.90;1.80;;;4.70;99.90;;;;;;5099563;27;20035;-79
2022/01/26 19:31:54;;;;;;;1.67;1.58;;;4.80;99.90;;;;;;5117306;27;20134;-77
2022/01/26 19:45:04;;;;;;;1.48;1.08;;;4.70;99.90;;;;;;5117275;27;20141;-77
2022/01/26 19:52:56;;;;;;;0.60;0.60;;;4.80;99.90;;;;;;5116325;27;20051;-77
2022/01/26 19:55:24;;;;;;;2.63;2.42;;;4.70;99.90;;;;;;5116289;28;20047;-79
2022/01/26 19:57:50;;;;;;;0.75;0.75;;;4.80;99.90;;;;;;5099414;27;20051;-79
2022/01/26 20:00:16;;;;;;;0.60;0.60;;;4.80;99.90;;;;;;5116316;28;20368;-78
2022/01/26 20:02:41;;;;;;;0.60;0.60;;;4.80;99.90;;;;;;5116365;28;20035;-79
2022/01/26 20:05:13;;;;;;;2.75;2.60;;;4.80;99.90;;;;;;5116388;28;20076;-79
2022/01/26 20:07:40;;;;;;;1.75;1.58;;;4.80;99.90;;;;;;5099631;28;20039;-79
2022/01/26 20:10:06;;;;;;;1.25;1.15;;;4.80;99.90;;;;;;5099294;28;20087;-79